sensor_id;sensor_type;location;lat;lon;timestamp;pressure;altitude;pressure_sealevel;temperature;humidity
37860;BME280;23698;52.014;5.190;2023-02-28T00:00:06;103113.56;;;4.77;100.00
37860;BME280;23698;52.014;5.190;2023-02-28T00:02:55;103113.84;;;4.44;100.00
37860;BME280;23698;52.014;5.190;2023-02-28T00:05:41;103101.00;;;4.20;100.00
37860;BME280;23698;52.014;5.190;2023-02-28T00:08:28;103098.91;;;4.40;100.00
37860;BME280;23698;52.014;5.190;2023-02-28T00:11:15;103101.78;;;5.07;100.00
37860;BME280;23698;52.014;5.190;2023-02-28T00:14:02;103092.50;;;4.84;100.00
37860;BME280;23698;52.014;5.190;2023-02-28T00:16:49;103101.56;;;5.10;100.00
37860;BME280;23698;52.014;5.190;2023-02-28T00:19:36;103109.09;;;4.90;100.00
37860;BME280;23698;52.014;5.190;2023-02-28T00:22:22;103105.97;;;4.69;100.00
37860;BME280;23698;52.014;5.190;2023-02-28T00:25:10;103112.16;;;4.99;100.00
37860;BME280;23698;52.014;5.190;2023-02-28T00:27:57;103109.63;;;4.83;100.00
37860;BME280;23698;52.014;5.190;2023-02-28T00:30:44;103109.53;;;4.56;100.00
37860;BME280;23698;52.014;5.190;2023-02-28T00:33:32;103111.94;;;4.31;100.00
37860;BME280;23698;52.014;5.190;2023-02-28T00:36:19;103109.53;;;4.41;100.00
37860;BME280;23698;52.014;5.190;2023-02-28T00:39:05;103107.69;;;4.85;100.00
37860;BME280;23698;52.014;5.190;2023-02-28T00:41:52;103105.13;;;4.40;100.00
37860;BME280;23698;52.014;5.190;2023-02-28T00:44:38;103103.50;;;4.38;100.00
37860;BME280;23698;52.014;5.190;2023-02-28T00:47:25;103106.78;;;4.43;100.00
37860;BME280;23698;52.014;5.190;2023-02-28T00:50:13;103104.38;;;4.67;100.00
37860;BME280;23698;52.014;5.190;2023-02-28T00:52:59;103105.38;;;4.93;100.00
37860;BME280;23698;52.014;5.190;2023-02-28T00:55:45;103100.56;;;4.98;100.00
37860;BME280;23698;52.014;5.190;2023-02-28T00:58:32;103095.25;;;5.38;100.00
37860;BME280;23698;52.014;5.190;2023-02-28T01:01:18;103097.38;;;5.33;100.00
37860;BME280;23698;52.014;5.190;2023-02-28T01:04:05;103097.13;;;5.23;100.00
37860;BME280;23698;52.014;5.190;2023-02-28T01:06:54;103097.72;;;5.14;100.00
37860;BME280;23698;52.014;5.190;2023-02-28T01:09:40;103091.44;;;5.68;100.00
37860;BME280;23698;52.014;5.190;2023-02-28T01:12:27;103101.22;;;5.56;100.00
37860;BME280;23698;52.014;5.190;2023-02-28T01:15:15;103108.09;;;5.60;100.00
37860;BME280;23698;52.014;5.190;2023-02-28T01:18:02;103114.19;;;5.77;100.00
37860;BME280;23698;52.014;5.190;2023-02-28T01:20:49;103109.88;;;5.87;100.00
37860;BME280;23698;52.014;5.190;2023-02-28T01:23:38;103113.25;;;5.51;100.00
37860;BME280;23698;52.014;5.190;2023-02-28T01:26:24;103112.16;;;5.80;100.00
37860;BME280;23698;52.014;5.190;2023-02-28T01:29:11;103100.78;;;4.81;100.00
37860;BME280;23698;52.014;5.190;2023-02-28T01:31:57;103095.78;;;3.12;100.00
37860;BME280;23698;52.014;5.190;2023-02-28T01:34:44;103089.81;;;2.59;100.00
37860;BME280;23698;52.014;5.190;2023-02-28T01:37:31;103082.28;;;2.65;100.00
37860;BME280;23698;52.014;5.190;2023-02-28T01:40:19;103068.47;;;2.57;100.00
37860;BME280;23698;52.014;5.190;2023-02-28T01:43:12;103063.84;;;3.23;100.00
37860;BME280;23698;52.014;5.190;2023-02-28T01:46:05;103061.22;;;3.07;100.00
37860;BME280;23698;52.014;5.190;2023-02-28T01:48:54;103059.97;;;4.04;100.00
37860;BME280;23698;52.014;5.190;2023-02-28T01:51:45;103051.69;;;4.50;100.00
37860;BME280;23698;52.014;5.190;2023-02-28T01:54:36;103056.50;;;4.30;100.00
37860;BME280;23698;52.014;5.190;2023-02-28T01:57:27;103048.34;;;4.46;100.00
37860;BME280;23698;52.014;5.190;2023-02-28T02:00:22;103059.91;;;4.76;100.00
37860;BME280;23698;52.014;5.190;2023-02-28T02:03:12;103054.69;;;4.87;100.00
37860;BME280;23698;52.014;5.190;2023-02-28T02:06:01;103057.47;;;4.85;100.00
37860;BME280;23698;52.014;5.190;2023-02-28T02:08:48;103065.75;;;5.37;100.00
37860;BME280;23698;52.014;5.190;2023-02-28T02:11:35;103063.91;;;5.10;100.00
37860;BME280;23698;52.014;5.190;2023-02-28T02:14:34;103053.78;;;5.28;100.00
37860;BME280;23698;52.014;5.190;2023-02-28T02:17:28;103051.03;;;5.42;100.00
37860;BME280;23698;52.014;5.190;2023-02-28T02:20:43;103054.72;;;5.67;100.00
37860;BME280;23698;52.014;5.190;2023-02-28T02:27:11;103052.56;;;5.19;100.00
37860;BME280;23698;52.014;5.190;2023-02-28T02:30:37;103046.63;;;4.87;100.00
37860;BME280;23698;52.014;5.190;2023-02-28T02:36:52;103062.34;;;5.20;100.00
37860;BME280;23698;52.014;5.190;2023-02-28T02:39:47;103062.25;;;5.22;100.00
37860;BME280;23698;52.014;5.190;2023-02-28T02:42:39;103066.06;;;5.05;100.00
37860;BME280;23698;52.014;5.190;2023-02-28T02:45:31;103073.91;;;5.08;100.00
37860;BME280;23698;52.014;5.190;2023-02-28T02:48:24;103075.34;;;5.14;100.00
37860;BME280;23698;52.014;5.190;2023-02-28T02:51:12;103076.47;;;5.24;100.00
37860;BME280;23698;52.014;5.190;2023-02-28T02:54:05;103071.91;;;5.11;100.00
37860;BME280;23698;52.014;5.190;2023-02-28T02:56:55;103068.81;;;4.76;100.00
37860;BME280;23698;52.014;5.190;2023-02-28T02:59:44;103071.94;;;4.97;100.00
37860;BME280;23698;52.014;5.190;2023-02-28T03:02:31;103066.69;;;5.23;100.00
37860;BME280;23698;52.014;5.190;2023-02-28T03:05:23;103070.06;;;5.52;100.00
37860;BME280;23698;52.014;5.190;2023-02-28T03:08:11;103078.41;;;5.62;100.00
37860;BME280;23698;52.014;5.190;2023-02-28T03:11:00;103079.91;;;5.66;100.00
37860;BME280;23698;52.014;5.190;2023-02-28T03:14:10;103074.75;;;5.63;100.00
37860;BME280;23698;52.014;5.190;2023-02-28T03:17:26;103071.44;;;5.32;100.00
37860;BME280;23698;52.014;5.190;2023-02-28T03:20:27;103067.50;;;5.10;100.00
37860;BME280;23698;52.014;5.190;2023-02-28T03:23:21;103066.97;;;5.18;100.00
37860;BME280;23698;52.014;5.190;2023-02-28T03:26:17;103067.34;;;5.26;100.00
37860;BME280;23698;52.014;5.190;2023-02-28T03:29:09;103068.06;;;5.01;100.00
37860;BME280;23698;52.014;5.190;2023-02-28T03:32:05;103072.56;;;5.15;100.00
37860;BME280;23698;52.014;5.190;2023-02-28T03:35:02;103073.19;;;5.46;100.00
37860;BME280;23698;52.014;5.190;2023-02-28T03:37:56;103080.81;;;5.39;100.00
37860;BME280;23698;52.014;5.190;2023-02-28T03:40:49;103076.09;;;5.43;100.00
37860;BME280;23698;52.014;5.190;2023-02-28T03:43:42;103069.44;;;5.48;100.00
37860;BME280;23698;52.014;5.190;2023-02-28T03:46:34;103078.22;;;5.38;100.00
37860;BME280;23698;52.014;5.190;2023-02-28T03:49:24;103080.88;;;5.25;100.00
37860;BME280;23698;52.014;5.190;2023-02-28T03:52:14;103076.31;;;5.13;100.00
37860;BME280;23698;52.014;5.190;2023-02-28T03:55:04;103081.22;;;5.06;100.00
37860;BME280;23698;52.014;5.190;2023-02-28T03:57:57;103076.88;;;5.18;100.00
37860;BME280;23698;52.014;5.190;2023-02-28T04:00:52;103074.25;;;5.43;100.00
37860;BME280;23698;52.014;5.190;2023-02-28T04:03:41;103078.94;;;5.54;100.00
37860;BME280;23698;52.014;5.190;2023-02-28T04:06:30;103074.38;;;5.42;100.00
37860;BME280;23698;52.014;5.190;2023-02-28T04:09:17;103079.38;;;5.21;100.00
37860;BME280;23698;52.014;5.190;2023-02-28T04:12:04;103088.34;;;4.92;100.00
37860;BME280;23698;52.014;5.190;2023-02-28T04:14:50;103082.78;;;4.68;100.00
37860;BME280;23698;52.014;5.190;2023-02-28T04:17:38;103088.22;;;4.81;100.00
37860;BME280;23698;52.014;5.190;2023-02-28T04:20:24;103091.88;;;4.66;100.00
37860;BME280;23698;52.014;5.190;2023-02-28T04:23:10;103084.69;;;4.38;100.00
37860;BME280;23698;52.014;5.190;2023-02-28T04:25:56;103090.94;;;4.24;100.00
37860;BME280;23698;52.014;5.190;2023-02-28T04:28:43;103089.50;;;4.18;100.00
37860;BME280;23698;52.014;5.190;2023-02-28T04:31:29;103096.97;;;3.99;100.00
37860;BME280;23698;52.014;5.190;2023-02-28T04:34:17;103097.28;;;3.78;100.00
37860;BME280;23698;52.014;5.190;2023-02-28T04:37:05;103095.91;;;4.15;100.00
37860;BME280;23698;52.014;5.190;2023-02-28T04:39:58;103101.84;;;4.06;100.00
37860;BME280;23698;52.014;5.190;2023-02-28T04:42:45;103100.53;;;3.69;100.00
37860;BME280;23698;52.014;5.190;2023-02-28T04:45:31;103101.00;;;3.75;100.00
37860;BME280;23698;52.014;5.190;2023-02-28T04:48:19;103108.13;;;3.76;100.00
37860;BME280;23698;52.014;5.190;2023-02-28T04:51:09;103109.84;;;3.77;100.00
37860;BME280;23698;52.014;5.190;2023-02-28T04:53:56;103101.75;;;4.37;100.00
37860;BME280;23698;52.014;5.190;2023-02-28T04:56:42;103112.50;;;4.22;100.00
37860;BME280;23698;52.014;5.190;2023-02-28T04:59:29;103117.63;;;3.96;100.00
37860;BME280;23698;52.014;5.190;2023-02-28T05:02:15;103124.84;;;3.66;100.00
37860;BME280;23698;52.014;5.190;2023-02-28T05:05:02;103123.91;;;3.51;100.00
37860;BME280;23698;52.014;5.190;2023-02-28T05:07:50;103112.03;;;3.71;100.00
37860;BME280;23698;52.014;5.190;2023-02-28T05:10:36;103120.84;;;3.43;100.00
37860;BME280;23698;52.014;5.190;2023-02-28T05:13:22;103115.06;;;3.18;100.00
37860;BME280;23698;52.014;5.190;2023-02-28T05:16:09;103120.16;;;2.75;100.00
37860;BME280;23698;52.014;5.190;2023-02-28T05:18:55;103108.41;;;3.26;100.00
37860;BME280;23698;52.014;5.190;2023-02-28T05:21:50;103107.69;;;2.74;100.00
37860;BME280;23698;52.014;5.190;2023-02-28T05:24:38;103105.47;;;2.98;100.00
37860;BME280;23698;52.014;5.190;2023-02-28T05:27:24;103102.44;;;3.20;100.00
37860;BME280;23698;52.014;5.190;2023-02-28T05:30:11;103102.09;;;3.11;100.00
37860;BME280;23698;52.014;5.190;2023-02-28T05:32:58;103104.53;;;3.15;100.00
37860;BME280;23698;52.014;5.190;2023-02-28T05:35:44;103098.56;;;3.56;100.00
37860;BME280;23698;52.014;5.190;2023-02-28T05:38:31;103108.81;;;3.18;100.00
37860;BME280;23698;52.014;5.190;2023-02-28T05:41:19;103105.81;;;3.24;100.00
37860;BME280;23698;52.014;5.190;2023-02-28T05:44:06;103110.44;;;3.52;100.00
37860;BME280;23698;52.014;5.190;2023-02-28T05:46:52;103100.56;;;3.53;100.00
37860;BME280;23698;52.014;5.190;2023-02-28T05:49:39;103100.56;;;3.83;100.00
37860;BME280;23698;52.014;5.190;2023-02-28T05:52:25;103104.41;;;3.63;100.00
37860;BME280;23698;52.014;5.190;2023-02-28T05:55:12;103108.16;;;3.61;100.00
37860;BME280;23698;52.014;5.190;2023-02-28T05:57:59;103105.31;;;4.23;100.00
37860;BME280;23698;52.014;5.190;2023-02-28T06:00:45;103101.91;;;3.30;100.00
37860;BME280;23698;52.014;5.190;2023-02-28T06:03:32;103095.88;;;3.87;100.00
37860;BME280;23698;52.014;5.190;2023-02-28T06:06:18;103100.75;;;2.05;100.00
37860;BME280;23698;52.014;5.190;2023-02-28T06:09:04;103098.22;;;2.02;100.00
37860;BME280;23698;52.014;5.190;2023-02-28T06:11:51;103093.53;;;2.23;100.00
37860;BME280;23698;52.014;5.190;2023-02-28T06:14:40;103090.88;;;2.23;100.00
37860;BME280;23698;52.014;5.190;2023-02-28T06:17:26;103086.13;;;2.28;100.00
37860;BME280;23698;52.014;5.190;2023-02-28T06:20:13;103074.66;;;3.68;100.00
37860;BME280;23698;52.014;5.190;2023-02-28T06:22:59;103084.56;;;3.82;100.00
37860;BME280;23698;52.014;5.190;2023-02-28T06:25:46;103075.59;;;4.26;100.00
37860;BME280;23698;52.014;5.190;2023-02-28T06:28:32;103089.31;;;4.35;100.00
37860;BME280;23698;52.014;5.190;2023-02-28T06:31:20;103081.72;;;4.28;100.00
37860;BME280;23698;52.014;5.190;2023-02-28T06:34:07;103084.31;;;4.15;100.00
37860;BME280;23698;52.014;5.190;2023-02-28T06:36:53;103089.84;;;3.97;100.00
37860;BME280;23698;52.014;5.190;2023-02-28T06:39:40;103085.06;;;4.03;100.00
37860;BME280;23698;52.014;5.190;2023-02-28T06:42:26;103075.56;;;3.52;100.00
37860;BME280;23698;52.014;5.190;2023-02-28T06:45:13;103067.72;;;3.33;100.00
37860;BME280;23698;52.014;5.190;2023-02-28T06:48:02;103077.28;;;3.84;100.00
37860;BME280;23698;52.014;5.190;2023-02-28T06:50:48;103074.84;;;3.34;100.00
37860;BME280;23698;52.014;5.190;2023-02-28T06:53:35;103073.97;;;3.64;100.00
37860;BME280;23698;52.014;5.190;2023-02-28T06:56:22;103085.66;;;3.63;100.00
37860;BME280;23698;52.014;5.190;2023-02-28T06:59:08;103095.91;;;3.40;100.00
37860;BME280;23698;52.014;5.190;2023-02-28T07:01:55;103080.34;;;3.47;100.00
37860;BME280;23698;52.014;5.190;2023-02-28T07:04:43;103080.28;;;3.63;100.00
37860;BME280;23698;52.014;5.190;2023-02-28T07:07:30;103077.69;;;3.31;100.00
37860;BME280;23698;52.014;5.190;2023-02-28T07:10:17;103080.78;;;3.39;100.00
37860;BME280;23698;52.014;5.190;2023-02-28T07:13:05;103087.72;;;3.28;100.00
37860;BME280;23698;52.014;5.190;2023-02-28T07:15:53;103085.94;;;3.58;100.00
37860;BME280;23698;52.014;5.190;2023-02-28T07:18:40;103084.75;;;3.93;100.00
37860;BME280;23698;52.014;5.190;2023-02-28T07:21:28;103092.09;;;4.20;100.00
37860;BME280;23698;52.014;5.190;2023-02-28T07:24:15;103100.25;;;4.18;100.00
37860;BME280;23698;52.014;5.190;2023-02-28T07:27:03;103095.69;;;3.90;100.00
37860;BME280;23698;52.014;5.190;2023-02-28T07:29:49;103092.03;;;3.76;100.00
37860;BME280;23698;52.014;5.190;2023-02-28T07:32:35;103092.84;;;4.07;100.00
37860;BME280;23698;52.014;5.190;2023-02-28T07:35:23;103089.50;;;4.18;100.00
37860;BME280;23698;52.014;5.190;2023-02-28T07:38:10;103090.94;;;4.38;100.00
37860;BME280;23698;52.014;5.190;2023-02-28T07:40:58;103098.81;;;4.41;100.00
37860;BME280;23698;52.014;5.190;2023-02-28T07:43:45;103093.28;;;3.85;100.00
37860;BME280;23698;52.014;5.190;2023-02-28T07:46:31;103095.50;;;3.93;100.00
37860;BME280;23698;52.014;5.190;2023-02-28T07:49:21;103098.81;;;4.27;100.00
37860;BME280;23698;52.014;5.190;2023-02-28T07:52:08;103087.09;;;4.57;100.00
37860;BME280;23698;52.014;5.190;2023-02-28T07:54:57;103102.03;;;4.75;100.00
37860;BME280;23698;52.014;5.190;2023-02-28T07:57:44;103100.53;;;4.57;100.00
37860;BME280;23698;52.014;5.190;2023-02-28T08:00:30;103106.28;;;4.22;100.00
37860;BME280;23698;52.014;5.190;2023-02-28T08:03:19;103105.13;;;4.11;100.00
37860;BME280;23698;52.014;5.190;2023-02-28T08:06:15;103108.19;;;4.20;100.00
37860;BME280;23698;52.014;5.190;2023-02-28T08:09:02;103105.03;;;4.42;100.00
37860;BME280;23698;52.014;5.190;2023-02-28T08:11:50;103108.75;;;4.82;100.00
37860;BME280;23698;52.014;5.190;2023-02-28T08:14:38;103114.91;;;4.56;100.00
37860;BME280;23698;52.014;5.190;2023-02-28T08:17:24;103118.13;;;4.03;100.00
37860;BME280;23698;52.014;5.190;2023-02-28T08:20:11;103107.25;;;4.49;100.00
37860;BME280;23698;52.014;5.190;2023-02-28T08:22:58;103122.41;;;3.91;100.00
37860;BME280;23698;52.014;5.190;2023-02-28T08:25:44;103121.09;;;4.99;100.00
37860;BME280;23698;52.014;5.190;2023-02-28T08:28:32;103118.94;;;4.20;100.00
37860;BME280;23698;52.014;5.190;2023-02-28T08:31:19;103117.56;;;4.99;100.00
37860;BME280;23698;52.014;5.190;2023-02-28T08:34:06;103127.00;;;4.20;100.00
37860;BME280;23698;52.014;5.190;2023-02-28T08:36:52;103123.72;;;4.86;100.00
37860;BME280;23698;52.014;5.190;2023-02-28T08:39:39;103131.09;;;4.11;100.00
37860;BME280;23698;52.014;5.190;2023-02-28T08:42:25;103130.94;;;4.43;100.00
37860;BME280;23698;52.014;5.190;2023-02-28T08:45:14;103134.56;;;4.42;100.00
37860;BME280;23698;52.014;5.190;2023-02-28T08:48:01;103127.84;;;4.34;100.00
37860;BME280;23698;52.014;5.190;2023-02-28T08:50:55;103132.06;;;4.82;100.00
37860;BME280;23698;52.014;5.190;2023-02-28T08:53:51;103131.41;;;4.64;100.00
37860;BME280;23698;52.014;5.190;2023-02-28T08:56:38;103137.16;;;4.58;100.00
37860;BME280;23698;52.014;5.190;2023-02-28T08:59:25;103144.56;;;4.68;100.00
37860;BME280;23698;52.014;5.190;2023-02-28T09:02:14;103156.94;;;4.57;100.00
37860;BME280;23698;52.014;5.190;2023-02-28T09:05:00;103149.25;;;4.79;100.00
37860;BME280;23698;52.014;5.190;2023-02-28T09:07:48;103155.38;;;4.96;100.00
37860;BME280;23698;52.014;5.190;2023-02-28T09:10:35;103150.84;;;4.96;100.00
37860;BME280;23698;52.014;5.190;2023-02-28T09:13:22;103153.00;;;4.77;100.00
37860;BME280;23698;52.014;5.190;2023-02-28T09:16:11;103160.66;;;4.97;100.00
37860;BME280;23698;52.014;5.190;2023-02-28T09:18:58;103173.06;;;4.57;100.00
37860;BME280;23698;52.014;5.190;2023-02-28T09:21:45;103180.03;;;4.45;100.00
37860;BME280;23698;52.014;5.190;2023-02-28T09:24:31;103174.00;;;4.56;100.00
37860;BME280;23698;52.014;5.190;2023-02-28T09:27:18;103170.16;;;5.17;100.00
37860;BME280;23698;52.014;5.190;2023-02-28T09:30:05;103169.69;;;5.38;100.00
37860;BME280;23698;52.014;5.190;2023-02-28T09:32:52;103171.09;;;5.16;100.00
37860;BME280;23698;52.014;5.190;2023-02-28T09:35:40;103182.50;;;5.61;100.00
37860;BME280;23698;52.014;5.190;2023-02-28T09:38:28;103181.34;;;5.24;100.00
37860;BME280;23698;52.014;5.190;2023-02-28T09:41:16;103179.66;;;5.08;100.00
37860;BME280;23698;52.014;5.190;2023-02-28T09:44:04;103177.50;;;5.55;100.00
37860;BME280;23698;52.014;5.190;2023-02-28T09:46:56;103176.50;;;6.11;100.00
37860;BME280;23698;52.014;5.190;2023-02-28T09:49:45;103185.66;;;5.81;100.00
37860;BME280;23698;52.014;5.190;2023-02-28T09:52:34;103181.38;;;5.51;100.00
37860;BME280;23698;52.014;5.190;2023-02-28T09:55:28;103196.09;;;5.31;100.00
37860;BME280;23698;52.014;5.190;2023-02-28T09:58:29;103185.94;;;5.91;100.00
37860;BME280;23698;52.014;5.190;2023-02-28T10:01:22;103190.44;;;5.90;100.00
37860;BME280;23698;52.014;5.190;2023-02-28T10:04:18;103191.78;;;5.70;100.00
37860;BME280;23698;52.014;5.190;2023-02-28T10:07:19;103181.94;;;6.49;100.00
37860;BME280;23698;52.014;5.190;2023-02-28T10:10:18;103181.03;;;6.74;100.00
37860;BME280;23698;52.014;5.190;2023-02-28T10:13:14;103186.69;;;6.71;100.00
37860;BME280;23698;52.014;5.190;2023-02-28T10:16:06;103185.47;;;6.24;100.00
37860;BME280;23698;52.014;5.190;2023-02-28T10:19:03;103182.56;;;6.53;100.00
37860;BME280;23698;52.014;5.190;2023-02-28T10:21:55;103179.00;;;6.65;100.00
37860;BME280;23698;52.014;5.190;2023-02-28T10:24:44;103173.88;;;7.12;100.00
37860;BME280;23698;52.014;5.190;2023-02-28T10:27:33;103161.75;;;6.16;100.00
37860;BME280;23698;52.014;5.190;2023-02-28T10:30:20;103161.59;;;7.32;100.00
37860;BME280;23698;52.014;5.190;2023-02-28T10:33:17;103161.63;;;6.82;100.00
37860;BME280;23698;52.014;5.190;2023-02-28T10:36:05;103156.63;;;7.63;100.00
37860;BME280;23698;52.014;5.190;2023-02-28T10:38:52;103163.59;;;6.54;92.68
37860;BME280;23698;52.014;5.190;2023-02-28T10:41:42;103168.66;;;6.33;90.77
37860;BME280;23698;52.014;5.190;2023-02-28T10:44:31;103169.19;;;6.77;88.20
37860;BME280;23698;52.014;5.190;2023-02-28T10:47:19;103169.75;;;7.19;89.35
37860;BME280;23698;52.014;5.190;2023-02-28T10:50:08;103168.16;;;7.16;85.29
37860;BME280;23698;52.014;5.190;2023-02-28T10:53:24;103168.38;;;7.13;87.56
37860;BME280;23698;52.014;5.190;2023-02-28T10:56:17;103168.91;;;7.06;87.75
37860;BME280;23698;52.014;5.190;2023-02-28T10:59:27;103171.56;;;6.30;85.11
37860;BME280;23698;52.014;5.190;2023-02-28T11:02:34;103161.22;;;6.50;89.31
37860;BME280;23698;52.014;5.190;2023-02-28T11:05:30;103149.47;;;6.76;89.31
37860;BME280;23698;52.014;5.190;2023-02-28T11:08:17;103152.84;;;7.04;84.59
37860;BME280;23698;52.014;5.190;2023-02-28T11:11:05;103142.25;;;7.14;84.83
37860;BME280;23698;52.014;5.190;2023-02-28T11:13:53;103146.81;;;7.00;90.04
37860;BME280;23698;52.014;5.190;2023-02-28T11:16:40;103151.81;;;7.18;83.18
37860;BME280;23698;52.014;5.190;2023-02-28T11:19:33;103151.66;;;7.08;81.12
37860;BME280;23698;52.014;5.190;2023-02-28T11:22:24;103140.94;;;6.57;79.32
37860;BME280;23698;52.014;5.190;2023-02-28T11:25:20;103130.66;;;6.88;80.49
37860;BME280;23698;52.014;5.190;2023-02-28T11:28:24;103130.19;;;7.07;82.75
37860;BME280;23698;52.014;5.190;2023-02-28T11:31:17;103137.44;;;6.93;77.72
37860;BME280;23698;52.014;5.190;2023-02-28T11:34:24;103128.69;;;7.27;78.85
37860;BME280;23698;52.014;5.190;2023-02-28T11:37:14;103132.56;;;7.11;76.59
37860;BME280;23698;52.014;5.190;2023-02-28T11:40:08;103131.25;;;7.41;75.53
37860;BME280;23698;52.014;5.190;2023-02-28T11:43:06;103126.94;;;7.38;77.36
37860;BME280;23698;52.014;5.190;2023-02-28T11:46:05;103117.38;;;7.22;74.83
37860;BME280;23698;52.014;5.190;2023-02-28T11:48:59;103114.75;;;7.33;81.43
37860;BME280;23698;52.014;5.190;2023-02-28T11:51:53;103118.81;;;6.77;76.26
37860;BME280;23698;52.014;5.190;2023-02-28T11:54:59;103108.72;;;7.89;78.33
37860;BME280;23698;52.014;5.190;2023-02-28T11:58:05;103111.47;;;7.41;77.10
37860;BME280;23698;52.014;5.190;2023-02-28T12:01:09;103100.16;;;8.18;79.25
37860;BME280;23698;52.014;5.190;2023-02-28T12:04:11;103101.44;;;8.36;77.21
37860;BME280;23698;52.014;5.190;2023-02-28T12:07:09;103091.75;;;8.67;77.16
37860;BME280;23698;52.014;5.190;2023-02-28T12:10:06;103096.38;;;8.20;73.43
37860;BME280;23698;52.014;5.190;2023-02-28T12:13:08;103088.34;;;7.96;72.67
37860;BME280;23698;52.014;5.190;2023-02-28T12:16:16;103090.84;;;8.33;74.74
37860;BME280;23698;52.014;5.190;2023-02-28T12:19:16;103090.56;;;7.91;73.04
37860;BME280;23698;52.014;5.190;2023-02-28T12:22:24;103094.63;;;7.61;74.63
37860;BME280;23698;52.014;5.190;2023-02-28T12:25:38;103089.75;;;8.92;70.90
37860;BME280;23698;52.014;5.190;2023-02-28T12:28:33;103091.97;;;8.30;76.29
37860;BME280;23698;52.014;5.190;2023-02-28T12:31:22;103087.03;;;8.92;72.11
37860;BME280;23698;52.014;5.190;2023-02-28T12:34:13;103090.84;;;8.33;69.06
37860;BME280;23698;52.014;5.190;2023-02-28T12:37:04;103076.63;;;8.76;68.98
37860;BME280;23698;52.014;5.190;2023-02-28T12:39:56;103078.59;;;8.74;68.54
37860;BME280;23698;52.014;5.190;2023-02-28T12:42:50;103080.56;;;7.69;68.97
37860;BME280;23698;52.014;5.190;2023-02-28T12:45:40;103075.84;;;8.18;68.09
37860;BME280;23698;52.014;5.190;2023-02-28T12:48:32;103066.13;;;9.05;65.36
37860;BME280;23698;52.014;5.190;2023-02-28T12:51:24;103071.13;;;7.39;76.80
37860;BME280;23698;52.014;5.190;2023-02-28T12:54:19;103069.75;;;7.09;79.09
37860;BME280;23698;52.014;5.190;2023-02-28T12:57:12;103063.56;;;6.96;77.84
37860;BME280;23698;52.014;5.190;2023-02-28T13:00:04;103057.97;;;7.59;78.40
37860;BME280;23698;52.014;5.190;2023-02-28T13:03:16;103051.78;;;8.03;75.80
37860;BME280;23698;52.014;5.190;2023-02-28T13:06:34;103056.69;;;7.98;71.66
37860;BME280;23698;52.014;5.190;2023-02-28T13:09:27;103048.00;;;8.06;72.94
37860;BME280;23698;52.014;5.190;2023-02-28T13:12:15;103046.25;;;7.47;73.03
37860;BME280;23698;52.014;5.190;2023-02-28T13:15:17;103046.88;;;7.50;71.13
37860;BME280;23698;52.014;5.190;2023-02-28T13:18:29;103036.31;;;7.94;68.35
37860;BME280;23698;52.014;5.190;2023-02-28T13:21:23;103041.81;;;7.92;65.81
37860;BME280;23698;52.014;5.190;2023-02-28T13:24:11;103050.94;;;8.03;64.74
37860;BME280;23698;52.014;5.190;2023-02-28T13:27:23;103026.25;;;8.64;65.16
37860;BME280;23698;52.014;5.190;2023-02-28T13:33:36;103033.72;;;9.48;60.14
37860;BME280;23698;52.014;5.190;2023-02-28T13:36:30;103033.31;;;8.99;63.95
37860;BME280;23698;52.014;5.190;2023-02-28T13:39:45;103025.06;;;9.54;61.85
37860;BME280;23698;52.014;5.190;2023-02-28T13:42:33;103030.25;;;9.24;62.85
37860;BME280;23698;52.014;5.190;2023-02-28T13:45:27;103023.97;;;10.89;63.10
37860;BME280;23698;52.014;5.190;2023-02-28T13:48:18;103021.94;;;11.60;59.43
37860;BME280;23698;52.014;5.190;2023-02-28T13:51:40;103025.25;;;7.39;65.95
37860;BME280;23698;52.014;5.190;2023-02-28T13:54:37;103028.84;;;7.15;66.64
37860;BME280;23698;52.014;5.190;2023-02-28T13:57:35;103020.19;;;6.99;70.01
37860;BME280;23698;52.014;5.190;2023-02-28T14:00:37;103014.00;;;7.10;70.37
37860;BME280;23698;52.014;5.190;2023-02-28T14:03:48;103013.41;;;6.69;69.07
37860;BME280;23698;52.014;5.190;2023-02-28T14:06:47;103009.50;;;6.73;70.49
37860;BME280;23698;52.014;5.190;2023-02-28T14:09:36;103001.69;;;7.06;74.72
37860;BME280;23698;52.014;5.190;2023-02-28T14:12:55;102998.94;;;7.18;71.63
37860;BME280;23698;52.014;5.190;2023-02-28T14:15:55;103004.66;;;7.03;71.95
37860;BME280;23698;52.014;5.190;2023-02-28T14:18:48;102999.47;;;6.99;72.41
37860;BME280;23698;52.014;5.190;2023-02-28T14:21:39;102990.78;;;7.07;71.74
37860;BME280;23698;52.014;5.190;2023-02-28T14:24:48;102987.53;;;7.15;72.22
37860;BME280;23698;52.014;5.190;2023-02-28T14:27:44;103000.44;;;6.98;76.21
37860;BME280;23698;52.014;5.190;2023-02-28T14:31:07;103000.53;;;6.97;72.50
37860;BME280;23698;52.014;5.190;2023-02-28T14:37:27;103001.25;;;7.12;73.88
37860;BME280;23698;52.014;5.190;2023-02-28T14:40:18;103002.63;;;6.93;73.50
37860;BME280;23698;52.014;5.190;2023-02-28T14:43:19;103006.84;;;7.09;74.80
37860;BME280;23698;52.014;5.190;2023-02-28T14:46:06;102997.53;;;7.13;75.75
37860;BME280;23698;52.014;5.190;2023-02-28T14:48:53;102995.03;;;6.98;74.53
37860;BME280;23698;52.014;5.190;2023-02-28T14:51:39;102993.38;;;7.09;72.42
37860;BME280;23698;52.014;5.190;2023-02-28T14:54:25;102990.34;;;7.13;72.28
37860;BME280;23698;52.014;5.190;2023-02-28T14:57:23;102991.00;;;7.04;74.55
37860;BME280;23698;52.014;5.190;2023-02-28T15:00:15;102992.22;;;7.24;75.04
37860;BME280;23698;52.014;5.190;2023-02-28T15:03:19;102994.72;;;7.03;72.45
37860;BME280;23698;52.014;5.190;2023-02-28T15:06:12;102992.97;;;7.02;73.50
37860;BME280;23698;52.014;5.190;2023-02-28T15:09:15;102990.56;;;6.62;71.55
37860;BME280;23698;52.014;5.190;2023-02-28T15:12:02;102996.09;;;6.60;74.11